createdAt,value
2022-11-06T00:05:58.535Z,8.4
2022-11-06T00:11:58.528Z,8.4
2022-11-06T00:14:58.574Z,8.4
2022-11-06T00:17:58.582Z,8.5
2022-11-06T00:20:58.577Z,8.4
2022-11-06T00:23:58.578Z,8.4
2022-11-06T00:26:58.575Z,8.4
2022-11-06T00:29:58.573Z,8.4
2022-11-06T00:32:58.578Z,8.4
2022-11-06T00:35:58.574Z,8.3
2022-11-06T00:38:58.577Z,8.3
2022-11-06T00:41:58.574Z,8.3
2022-11-06T00:44:58.579Z,8.3
2022-11-06T00:47:58.574Z,8.3
2022-11-06T00:50:58.573Z,8.3
2022-11-06T00:53:58.560Z,8.2
2022-11-06T00:56:58.668Z,8.2
2022-11-06T00:59:58.674Z,8.2
2022-11-06T01:02:58.762Z,8.1
2022-11-06T01:05:58.665Z,8.1
2022-11-06T01:08:58.679Z,8.1
2022-11-06T01:12:13.156Z,8.1
2022-11-06T01:14:58.671Z,8.1
2022-11-06T01:17:58.666Z,8
2022-11-06T01:20:58.660Z,8
2022-11-06T01:23:58.662Z,8
2022-11-06T01:27:25.264Z,8
2022-11-06T01:29:58.671Z,8
2022-11-06T01:32:58.661Z,7.9
2022-11-06T01:35:58.656Z,7.9
2022-11-06T01:38:58.652Z,7.9
2022-11-06T01:41:58.651Z,7.9
2022-11-06T01:44:58.652Z,7.9
2022-11-06T01:47:58.678Z,7.9
2022-11-06T01:50:58.648Z,7.8
2022-11-06T01:53:58.648Z,7.8
2022-11-06T01:56:58.648Z,7.8
2022-11-06T01:59:58.640Z,7.8
2022-11-06T02:02:58.802Z,7.8
2022-11-06T02:05:58.646Z,7.8
2022-11-06T02:08:58.662Z,7.8
2022-11-06T02:11:58.655Z,7.9
2022-11-06T02:14:58.653Z,7.9
2022-11-06T02:17:58.649Z,7.9
2022-11-06T02:20:58.712Z,7.9
2022-11-06T02:23:58.697Z,7.9
2022-11-06T02:26:58.737Z,8
2022-11-06T02:29:58.703Z,8
2022-11-06T02:32:58.717Z,8
2022-11-06T02:35:58.702Z,8
2022-11-06T02:38:58.707Z,8
2022-11-06T02:41:58.723Z,8
2022-11-06T02:44:58.709Z,8
2022-11-06T02:47:58.705Z,8
2022-11-06T02:50:58.711Z,8
2022-11-06T02:53:58.700Z,8
2022-11-06T02:56:58.713Z,8
2022-11-06T02:59:58.704Z,8
2022-11-06T03:02:58.915Z,8
2022-11-06T03:05:58.776Z,7.9
2022-11-06T03:08:58.791Z,7.9
2022-11-06T03:11:58.778Z,7.9
2022-11-06T03:14:58.769Z,7.9
2022-11-06T03:17:58.780Z,7.8
2022-11-06T03:20:58.787Z,7.8
2022-11-06T03:23:58.777Z,7.8
2022-11-06T03:26:58.920Z,7.8
2022-11-06T03:29:58.771Z,7.8
2022-11-06T03:32:58.819Z,7.8
2022-11-06T03:35:58.778Z,7.7
2022-11-06T03:38:58.776Z,7.7
2022-11-06T03:41:58.775Z,7.7
2022-11-06T03:44:58.828Z,7.6
2022-11-06T03:47:58.833Z,7.6
2022-11-06T03:50:58.848Z,7.6
2022-11-06T03:53:58.830Z,7.6
2022-11-06T03:56:58.842Z,7.6
2022-11-06T03:59:58.836Z,7.6
2022-11-06T04:02:58.996Z,7.5
2022-11-06T04:05:58.838Z,7.5
2022-11-06T04:08:58.873Z,7.5
2022-11-06T04:11:58.837Z,7.5
2022-11-06T04:14:58.834Z,7.5
2022-11-06T04:17:58.836Z,7.5
2022-11-06T04:20:58.830Z,7.5
2022-11-06T04:23:58.815Z,7.4
2022-11-06T04:26:58.825Z,7.4
2022-11-06T04:29:58.817Z,7.4
2022-11-06T04:33:00.450Z,7.4
2022-11-06T04:35:58.809Z,7.3
2022-11-06T04:38:58.816Z,7.3
2022-11-06T04:41:58.819Z,7.3
2022-11-06T04:44:58.812Z,7.3
2022-11-06T04:47:58.818Z,7.4
2022-11-06T04:50:58.822Z,7.4
2022-11-06T04:53:58.812Z,7.4
2022-11-06T04:56:58.822Z,7.4
2022-11-06T04:59:58.807Z,7.4
2022-11-06T05:02:58.828Z,7.4
2022-11-06T05:05:58.808Z,7.4
2022-11-06T05:08:58.818Z,7.4
2022-11-06T05:11:58.817Z,7.4
2022-11-06T05:14:58.813Z,7.4
2022-11-06T05:17:58.809Z,7.4
2022-11-06T05:20:58.812Z,7.4
2022-11-06T05:23:58.807Z,7.4
2022-11-06T05:26:59.504Z,7.4
2022-11-06T05:29:58.809Z,7.4
2022-11-06T05:32:58.810Z,7.4
2022-11-06T05:35:58.809Z,7.4
2022-11-06T05:38:58.803Z,7.4
2022-11-06T05:41:58.811Z,7.4
2022-11-06T05:44:58.802Z,7.3
2022-11-06T05:47:58.802Z,7.3
2022-11-06T05:53:58.815Z,7.3
2022-11-06T05:56:58.816Z,7.3
2022-11-06T05:59:58.813Z,7.3
2022-11-06T06:02:58.922Z,7.3
2022-11-06T06:05:58.856Z,7.3
2022-11-06T06:08:58.810Z,7.3
2022-11-06T06:11:58.809Z,7.3
2022-11-06T06:14:58.802Z,7.3
2022-11-06T06:17:58.807Z,7.3
2022-11-06T06:20:58.816Z,7.2
2022-11-06T06:23:58.823Z,7.2
2022-11-06T06:26:58.810Z,7.2
2022-11-06T06:29:58.809Z,7.2
2022-11-06T06:35:58.807Z,7.1
2022-11-06T06:38:58.787Z,7.1
2022-11-06T06:41:58.786Z,7.1
2022-11-06T06:44:58.796Z,7
2022-11-06T06:47:58.803Z,7
2022-11-06T06:50:58.788Z,7
2022-11-06T06:53:58.783Z,7
2022-11-06T06:56:58.807Z,7
2022-11-06T06:59:58.781Z,6.9
2022-11-06T07:02:58.783Z,6.9
2022-11-06T07:05:58.774Z,6.9
2022-11-06T07:11:58.770Z,6.9
2022-11-06T07:14:58.769Z,6.9
2022-11-06T07:17:58.776Z,6.9
2022-11-06T07:20:58.776Z,7
2022-11-06T07:23:58.767Z,7
2022-11-06T07:26:58.773Z,7
2022-11-06T07:29:58.770Z,7
2022-11-06T07:32:58.772Z,7.1
2022-11-06T07:35:58.774Z,7.1
2022-11-06T07:38:58.765Z,7.2
2022-11-06T07:41:58.784Z,7.2
2022-11-06T07:44:58.764Z,7.2
2022-11-06T07:47:59.258Z,7.2
2022-11-06T07:53:58.767Z,7.3
2022-11-06T07:56:58.758Z,7.3
2022-11-06T07:59:58.768Z,7.3
2022-11-06T08:02:58.757Z,7.3
2022-11-06T08:05:58.758Z,7.4
2022-11-06T08:08:59.167Z,7.4
2022-11-06T08:11:58.753Z,7.4
2022-11-06T08:14:58.749Z,7.4
2022-11-06T08:17:58.749Z,7.5
2022-11-06T08:20:58.748Z,7.5
2022-11-06T08:23:58.747Z,7.5
2022-11-06T08:26:58.745Z,7.5
2022-11-06T08:29:58.744Z,7.5
2022-11-06T08:32:58.742Z,7.6
2022-11-06T08:35:58.742Z,7.6
2022-11-06T08:38:58.746Z,7.6
2022-11-06T08:41:58.742Z,7.6
2022-11-06T08:44:58.753Z,7.6
2022-11-06T08:47:58.734Z,7.6
2022-11-06T08:50:58.737Z,7.7
2022-11-06T08:53:58.865Z,7.7
2022-11-06T08:56:58.734Z,7.7
2022-11-06T08:59:58.732Z,7.8
2022-11-06T09:02:58.748Z,7.8
2022-11-06T09:05:58.737Z,7.8
2022-11-06T09:08:58.726Z,7.8
2022-11-06T09:11:58.734Z,7.8
2022-11-06T09:14:58.730Z,7.9
2022-11-06T09:17:58.737Z,7.9
2022-11-06T09:20:58.733Z,7.9
2022-11-06T09:23:58.723Z,7.9
2022-11-06T09:26:58.728Z,8
2022-11-06T09:29:58.722Z,8
2022-11-06T09:32:58.723Z,8
2022-11-06T09:35:58.722Z,8
2022-11-06T09:38:58.829Z,8
2022-11-06T09:41:58.745Z,8.1
2022-11-06T09:44:58.725Z,8.1
2022-11-06T09:47:58.725Z,8.1
2022-11-06T09:50:58.716Z,8.1
2022-11-06T09:53:58.722Z,8.2
2022-11-06T09:56:58.719Z,8.2
2022-11-06T09:59:58.714Z,8.2
2022-11-06T10:02:58.711Z,8.3
2022-11-06T10:05:58.710Z,8.3
2022-11-06T10:08:58.805Z,8.3
2022-11-06T10:17:58.715Z,8.4
2022-11-06T10:20:58.713Z,8.5
2022-11-06T10:23:58.701Z,8.6
2022-11-06T10:26:58.707Z,8.6
2022-11-06T10:29:58.705Z,8.7
2022-11-06T10:32:58.705Z,8.7
2022-11-06T10:35:58.748Z,8.8
2022-11-06T10:38:58.725Z,8.8
2022-11-06T10:41:58.724Z,8.9
2022-11-06T10:44:58.711Z,8.9
2022-11-06T10:47:58.709Z,8.9
2022-11-06T10:50:58.708Z,9
2022-11-06T10:53:58.712Z,9
2022-11-06T10:56:58.703Z,9
2022-11-06T10:59:58.700Z,9
2022-11-06T11:02:58.704Z,9
2022-11-06T11:05:58.705Z,9.1
2022-11-06T11:08:58.717Z,9.1
2022-11-06T11:11:58.709Z,9.2
2022-11-06T11:14:58.704Z,9.2
2022-11-06T11:17:58.697Z,9.2
2022-11-06T11:20:58.708Z,9.3
2022-11-06T11:23:58.701Z,9.3
2022-11-06T11:26:58.717Z,9.3
2022-11-06T11:29:58.689Z,9.3
2022-11-06T11:32:58.700Z,9.3
2022-11-06T11:35:58.691Z,9.4
2022-11-06T11:38:58.697Z,9.4
2022-11-06T11:41:58.696Z,9.4
2022-11-06T11:44:58.697Z,9.5
2022-11-06T11:47:58.689Z,9.5
2022-11-06T11:50:58.693Z,9.6
2022-11-06T11:53:58.691Z,9.6
2022-11-06T11:57:04.482Z,9.6
2022-11-06T11:59:58.686Z,9.7
2022-11-06T12:02:58.755Z,9.7
2022-11-06T12:05:58.688Z,9.7
2022-11-06T12:08:58.682Z,9.8
2022-11-06T12:11:58.721Z,9.8
2022-11-06T12:14:58.684Z,9.8
2022-11-06T12:17:58.685Z,9.9
2022-11-06T12:20:58.679Z,9.9
2022-11-06T12:23:58.695Z,9.9
2022-11-06T12:26:58.678Z,9.9
2022-11-06T12:29:58.674Z,10
2022-11-06T12:32:58.674Z,10
2022-11-06T12:35:58.685Z,10.1
2022-11-06T12:38:58.672Z,10.1
2022-11-06T12:41:58.670Z,10.2
2022-11-06T12:44:58.669Z,10.2
2022-11-06T12:47:58.671Z,10.2
2022-11-06T12:50:58.665Z,10.3
2022-11-06T12:53:58.673Z,10.3
2022-11-06T12:56:58.669Z,10.3
2022-11-06T12:59:58.667Z,10.4
2022-11-06T13:02:58.676Z,10.4
2022-11-06T13:05:58.663Z,10.4
2022-11-06T13:08:58.664Z,10.4
2022-11-06T13:11:58.664Z,10.4
2022-11-06T13:14:58.662Z,10.5
2022-11-06T13:17:58.657Z,10.5
2022-11-06T13:20:58.658Z,10.5
2022-11-06T13:23:58.662Z,10.5
2022-11-06T13:26:58.656Z,10.5
2022-11-06T13:29:58.653Z,10.5
2022-11-06T13:32:58.658Z,10.5
2022-11-06T13:35:58.653Z,10.5
2022-11-06T13:38:58.745Z,10.5
2022-11-06T13:41:58.674Z,10.6
2022-11-06T13:44:58.676Z,10.6
2022-11-06T13:47:58.680Z,10.6
2022-11-06T13:50:58.679Z,10.6
2022-11-06T13:53:59.968Z,10.6
2022-11-06T13:56:58.675Z,10.6
2022-11-06T13:59:58.666Z,10.6
2022-11-06T14:02:58.688Z,10.6
2022-11-06T14:05:58.691Z,10.6
2022-11-06T14:08:58.666Z,10.6
2022-11-06T14:11:58.664Z,10.6
2022-11-06T14:14:58.674Z,10.6
2022-11-06T14:17:58.672Z,10.6
2022-11-06T14:20:58.670Z,10.6
2022-11-06T14:23:58.666Z,10.6
2022-11-06T14:26:58.664Z,10.6
2022-11-06T14:29:58.658Z,10.6
2022-11-06T14:32:58.665Z,10.6
2022-11-06T14:35:58.654Z,10.6
2022-11-06T14:38:58.655Z,10.6
2022-11-06T14:41:58.671Z,10.6
2022-11-06T14:44:58.657Z,10.6
2022-11-06T14:47:58.677Z,10.6
2022-11-06T14:50:58.659Z,10.6
2022-11-06T14:53:58.659Z,10.6
2022-11-06T14:56:58.658Z,10.5
2022-11-06T14:59:58.649Z,10.5
2022-11-06T15:02:58.656Z,10.5
2022-11-06T15:05:58.655Z,10.5
2022-11-06T15:08:58.655Z,10.5
2022-11-06T15:11:58.675Z,10.5
2022-11-06T15:14:58.648Z,10.5
2022-11-06T15:17:58.656Z,10.5
2022-11-06T15:20:58.650Z,10.5
2022-11-06T15:23:58.653Z,10.4
2022-11-06T15:26:58.644Z,10.4
2022-11-06T15:29:58.681Z,10.4
2022-11-06T15:32:58.658Z,10.4
2022-11-06T15:35:58.655Z,10.4
2022-11-06T15:38:58.655Z,10.4
2022-11-06T15:41:58.648Z,10.3
2022-11-06T15:44:58.652Z,10.3
2022-11-06T15:47:58.652Z,10.3
2022-11-06T15:50:58.647Z,10.3
2022-11-06T15:53:58.646Z,10.3
2022-11-06T15:56:58.642Z,10.3
2022-11-06T15:59:58.638Z,10.2
2022-11-06T16:02:58.635Z,10.2
2022-11-06T16:05:58.652Z,10.2
2022-11-06T16:08:58.644Z,10.2
2022-11-06T16:11:58.638Z,10.2
2022-11-06T16:14:58.633Z,10.2
2022-11-06T16:17:58.634Z,10.2
2022-11-06T16:20:58.630Z,10.1
2022-11-06T16:23:58.628Z,10.1
2022-11-06T16:26:58.627Z,10.1
2022-11-06T16:29:58.632Z,10.1
2022-11-06T16:32:58.636Z,10.1
2022-11-06T16:35:58.623Z,10
2022-11-06T16:38:58.620Z,10
2022-11-06T16:41:58.614Z,10
2022-11-06T16:44:58.617Z,10
2022-11-06T16:47:58.622Z,10
2022-11-06T16:50:58.619Z,10
2022-11-06T16:53:58.629Z,10
2022-11-06T16:56:58.633Z,10
2022-11-06T16:59:58.620Z,10
2022-11-06T17:02:58.755Z,10
2022-11-06T17:05:58.616Z,10
2022-11-06T17:08:58.615Z,10
2022-11-06T17:11:58.621Z,10
2022-11-06T17:14:58.616Z,10
2022-11-06T17:17:58.607Z,9.9
2022-11-06T17:20:58.621Z,9.9
2022-11-06T17:24:07.736Z,9.9
2022-11-06T17:26:58.623Z,9.9
2022-11-06T17:29:58.622Z,9.9
2022-11-06T17:32:58.630Z,9.9
2022-11-06T17:35:58.627Z,10
2022-11-06T17:38:58.610Z,10
2022-11-06T17:41:58.607Z,10
2022-11-06T17:47:58.606Z,10
2022-11-06T17:50:58.610Z,10
2022-11-06T17:53:58.616Z,9.9
2022-11-06T17:56:58.603Z,9.9
2022-11-06T17:59:58.597Z,9.9
2022-11-06T18:03:01.816Z,9.9
2022-11-06T18:05:58.600Z,9.8
2022-11-06T18:08:58.607Z,9.8
2022-11-06T18:11:58.601Z,9.8
2022-11-06T18:14:58.595Z,9.8
2022-11-06T18:17:58.594Z,9.7
2022-11-06T18:20:58.599Z,9.7
2022-11-06T18:23:58.603Z,9.7
2022-11-06T18:29:58.598Z,9.7
2022-11-06T18:32:58.591Z,9.6
2022-11-06T18:35:58.596Z,9.6
2022-11-06T18:38:58.597Z,9.6
2022-11-06T18:41:58.593Z,9.6
2022-11-06T18:44:58.590Z,9.6
2022-11-06T18:47:58.593Z,9.6
2022-11-06T18:50:58.604Z,9.6
2022-11-06T18:53:58.591Z,9.6
2022-11-06T18:56:58.608Z,9.6
2022-11-06T18:59:58.591Z,9.6
2022-11-06T19:02:58.663Z,9.6
2022-11-06T19:05:58.588Z,9.6
2022-11-06T19:08:58.586Z,9.5
2022-11-06T19:11:58.590Z,9.6
2022-11-06T19:14:58.584Z,9.5
2022-11-06T19:17:58.587Z,9.5
2022-11-06T19:20:58.581Z,9.5
2022-11-06T19:24:02.904Z,9.6
2022-11-06T19:26:58.575Z,9.6
2022-11-06T19:29:58.579Z,9.6
2022-11-06T19:32:58.578Z,9.6
2022-11-06T19:35:58.570Z,9.6
2022-11-06T19:38:58.760Z,9.6
2022-11-06T19:41:58.568Z,9.6
2022-11-06T19:44:58.570Z,9.6
2022-11-06T19:47:58.594Z,9.6
2022-11-06T19:50:59.933Z,9.6
2022-11-06T19:53:58.582Z,9.6
2022-11-06T19:57:28.055Z,9.6
2022-11-06T19:59:58.572Z,9.6
2022-11-06T20:02:58.570Z,9.6
2022-11-06T20:06:00.325Z,9.6
2022-11-06T20:08:58.576Z,9.6
2022-11-06T20:11:58.563Z,9.6
2022-11-06T20:14:58.566Z,9.6
2022-11-06T20:17:58.565Z,9.6
2022-11-06T20:20:58.568Z,9.6
2022-11-06T20:23:58.566Z,9.6
2022-11-06T20:26:58.564Z,9.6
2022-11-06T20:29:58.566Z,9.6
2022-11-06T20:32:58.559Z,9.5
2022-11-06T20:35:58.567Z,9.5
2022-11-06T20:38:58.568Z,9.5
2022-11-06T20:41:58.566Z,9.5
2022-11-06T20:44:58.558Z,9.5
2022-11-06T20:47:58.571Z,9.5
2022-11-06T20:50:58.569Z,9.5
2022-11-06T20:53:58.567Z,9.5
2022-11-06T20:56:58.566Z,9.5
2022-11-06T20:59:58.580Z,9.5
2022-11-06T21:03:01.679Z,9.5
2022-11-06T21:05:58.569Z,9.5
2022-11-06T21:08:58.559Z,9.5
2022-11-06T21:11:58.557Z,9.5
2022-11-06T21:14:58.563Z,9.5
2022-11-06T21:17:58.577Z,9.5
2022-11-06T21:20:58.552Z,9.5
2022-11-06T21:23:58.564Z,9.6
2022-11-06T21:26:58.559Z,9.6
2022-11-06T21:29:58.571Z,9.6
2022-11-06T21:32:58.555Z,9.6
2022-11-06T21:35:58.549Z,9.6
2022-11-06T21:38:58.547Z,9.6
2022-11-06T21:41:58.553Z,9.6
2022-11-06T21:44:58.547Z,9.6
2022-11-06T21:47:58.546Z,9.6
2022-11-06T21:50:58.565Z,9.6
2022-11-06T21:53:58.541Z,9.6
2022-11-06T21:56:58.545Z,9.6
2022-11-06T21:59:58.550Z,9.6
2022-11-06T22:02:58.618Z,9.6
2022-11-06T22:05:58.537Z,9.6
2022-11-06T22:08:58.545Z,9.6
2022-11-06T22:11:58.556Z,9.6
2022-11-06T22:14:58.537Z,9.6
2022-11-06T22:17:58.540Z,9.6
2022-11-06T22:20:58.528Z,9.6
2022-11-06T22:23:58.531Z,9.6
2022-11-06T22:26:58.532Z,9.6
2022-11-06T22:29:58.528Z,9.6
2022-11-06T22:32:58.531Z,9.6
2022-11-06T22:35:58.525Z,9.6
2022-11-06T22:38:58.524Z,9.6
2022-11-06T22:41:58.517Z,9.6
2022-11-06T22:44:58.523Z,9.6
2022-11-06T22:47:58.517Z,9.6
2022-11-06T22:50:58.525Z,9.6
2022-11-06T22:53:58.519Z,9.6
2022-11-06T22:56:58.526Z,9.6
2022-11-06T22:59:58.529Z,9.6
2022-11-06T23:02:58.546Z,9.6
2022-11-06T23:05:58.503Z,9.6
2022-11-06T23:08:58.513Z,9.6
2022-11-06T23:11:58.508Z,9.6
2022-11-06T23:14:58.513Z,9.6
2022-11-06T23:17:58.505Z,9.6
2022-11-06T23:20:58.506Z,9.7
2022-11-06T23:23:58.510Z,9.7
2022-11-06T23:26:58.513Z,9.7
2022-11-06T23:29:58.510Z,9.7
2022-11-06T23:32:58.496Z,9.7
2022-11-06T23:35:58.499Z,9.7
2022-11-06T23:38:58.495Z,9.7
2022-11-06T23:44:58.490Z,9.7
2022-11-06T23:47:58.492Z,9.7
2022-11-06T23:50:58.484Z,9.7
2022-11-06T23:53:58.489Z,9.7
2022-11-06T23:59:58.479Z,9.7
